Time;durP1;ratioP1;P1;durP2;ratioP2;P2;SDS_P1;SDS_P2;PMS_P1;PMS_P2;Temp;Humidity;BMP_temperature;BMP_pressure;BME280_temperature;BME280_humidity;BME280_pressure;Samples;Min_cycle;Max_cycle;Signal;HPM_P1;HPM_P2
2022/10/06 00:01:15;;;;;;;3.92;1.00;;;15.10;99.90;;;;;;4960707;28;20647;-63
2022/10/06 00:03:41;;;;;;;3.88;1.00;;;15.00;99.90;;;;;;4950801;28;20479;-63
2022/10/06 00:06:09;;;;;;;3.97;0.80;;;15.00;99.90;;;;;;4954574;28;21654;-63
2022/10/06 00:08:36;;;;;;;2.10;0.80;;;14.90;99.90;;;;;;4955238;28;20519;-63
2022/10/06 00:11:02;;;;;;;4.65;0.93;;;14.90;99.90;;;;;;4957492;28;20456;-63
2022/10/06 00:13:29;;;;;;;7.90;1.10;;;14.80;99.90;;;;;;4952035;28;20133;-62
2022/10/06 00:15:55;;;;;;;5.10;1.05;;;14.70;99.90;;;;;;4952404;28;20094;-63
2022/10/06 00:18:20;;;;;;;2.70;0.90;;;14.60;99.90;;;;;;4956123;28;20522;-63
2022/10/06 00:20:57;;;;;;;4.50;0.85;;;14.60;99.90;;;;;;4952013;28;20089;-63
2022/10/06 00:23:23;;;;;;;3.63;0.95;;;14.50;99.90;;;;;;4958552;28;20843;-63
2022/10/06 00:25:48;;;;;;;3.97;1.00;;;14.60;99.90;;;;;;4952604;28;20034;-63
2022/10/06 00:28:15;;;;;;;6.00;0.98;;;14.60;99.90;;;;;;4955250;28;20050;-63
2022/10/06 00:30:41;;;;;;;5.18;0.98;;;14.50;99.90;;;;;;4957555;28;20971;-63
2022/10/06 00:33:10;;;;;;;7.40;1.15;;;14.60;99.90;;;;;;4956548;28;20046;-63
2022/10/06 00:35:36;;;;;;;2.90;0.70;;;14.50;99.90;;;;;;4959320;28;20543;-63
2022/10/06 00:38:01;;;;;;;8.77;1.02;;;14.60;99.90;;;;;;4949566;28;20027;-63
2022/10/06 00:40:28;;;;;;;4.82;1.00;;;14.60;99.90;;;;;;4960321;28;20096;-63
2022/10/06 00:43:02;;;;;;;3.30;1.02;;;14.60;99.90;;;;;;4952616;28;20069;-63
2022/10/06 00:45:33;;;;;;;3.40;0.95;;;14.60;99.90;;;;;;4960751;28;20041;-63
2022/10/06 00:48:04;;;;;;;4.47;1.30;;;14.50;99.90;;;;;;4957974;28;20622;-63
2022/10/06 00:50:30;;;;;;;4.40;1.20;;;14.50;99.90;;;;;;4954870;28;20113;-63
2022/10/06 00:52:56;;;;;;;5.18;1.27;;;14.40;99.90;;;;;;4955450;28;20078;-63
2022/10/06 00:55:22;;;;;;;3.85;1.00;;;14.40;99.90;;;;;;4941626;28;20600;-63
2022/10/06 00:57:50;;;;;;;6.97;1.50;;;14.40;99.90;;;;;;4956392;28;20042;-63
2022/10/06 01:00:16;;;;;;;6.22;1.08;;;14.30;99.90;;;;;;4956202;28;20045;-63
2022/10/06 01:02:47;;;;;;;3.13;1.05;;;14.30;99.90;;;;;;4962214;28;20057;-63
2022/10/06 01:05:19;;;;;;;9.32;1.60;;;14.30;99.90;;;;;;4955168;28;20034;-63
2022/10/06 01:07:45;;;;;;;6.85;1.25;;;14.20;99.90;;;;;;4950300;28;20630;-63
2022/10/06 01:10:10;;;;;;;7.78;1.17;;;14.30;99.90;;;;;;4953731;28;20193;-63
2022/10/06 01:12:36;;;;;;;6.20;1.30;;;14.30;99.90;;;;;;4950511;28;20047;-63
2022/10/06 01:15:03;;;;;;;4.60;1.10;;;14.30;99.90;;;;;;4951409;28;20035;-63
2022/10/06 01:17:37;;;;;;;4.78;1.27;;;14.20;99.90;;;;;;4952801;28;20460;-63
2022/10/06 01:20:11;;;;;;;5.20;1.13;;;14.20;99.90;;;;;;4956767;28;20515;-63
2022/10/06 01:23:09;;;;;;;5.40;1.50;;;14.20;99.90;;;;;;4954784;28;20053;-63
2022/10/06 01:25:36;;;;;;;8.88;1.50;;;14.10;99.90;;;;;;4952043;28;20034;-63
2022/10/06 01:28:06;;;;;;;10.13;1.63;;;14.10;99.90;;;;;;4953439;28;20380;-63
2022/10/06 01:30:38;;;;;;;7.45;1.88;;;14.20;99.90;;;;;;4960615;28;20041;-63
2022/10/06 01:33:04;;;;;;;7.05;1.67;;;14.20;99.90;;;;;;4952826;28;20763;-63
2022/10/06 01:35:29;;;;;;;10.68;1.60;;;14.00;99.90;;;;;;4959108;28;20057;-63
2022/10/06 01:37:57;;;;;;;4.90;1.27;;;13.90;99.90;;;;;;4955291;28;20110;-63
2022/10/06 01:40:24;;;;;;;7.68;2.00;;;13.90;99.90;;;;;;4960620;28;20934;-63
2022/10/06 01:42:50;;;;;;;4.47;1.70;;;13.90;99.90;;;;;;4957671;28;20513;-63
2022/10/06 01:45:15;;;;;;;8.10;2.00;;;13.90;99.90;;;;;;4958481;28;20027;-63
2022/10/06 01:47:41;;;;;;;9.13;1.85;;;13.90;99.90;;;;;;4955956;28;20043;-62
2022/10/06 01:50:07;;;;;;;11.52;1.63;;;14.00;99.90;;;;;;4958393;28;20201;-62
2022/10/06 01:52:34;;;;;;;9.60;1.83;;;13.90;99.90;;;;;;4951730;28;20411;-62
2022/10/06 01:54:59;;;;;;;9.10;2.00;;;13.90;99.90;;;;;;4952462;28;20408;-63
2022/10/06 01:57:25;;;;;;;6.28;1.38;;;13.80;99.90;;;;;;4949848;28;20038;-62
2022/10/06 01:59:51;;;;;;;6.90;1.60;;;13.90;99.90;;;;;;4953915;28;20365;-62
2022/10/06 02:02:16;;;;;;;6.63;1.75;;;13.90;99.90;;;;;;4961262;28;20034;-63
2022/10/06 02:04:42;;;;;;;7.13;1.85;;;13.90;99.90;;;;;;4961536;28;20039;-62
2022/10/06 02:07:08;;;;;;;8.70;1.73;;;13.70;99.90;;;;;;4961652;28;20065;-62
2022/10/06 02:09:34;;;;;;;9.80;1.60;;;13.70;99.90;;;;;;4964485;28;20031;-62
2022/10/06 02:11:59;;;;;;;11.15;1.80;;;13.70;99.90;;;;;;4959345;28;20043;-62
2022/10/06 02:14:25;;;;;;;9.73;1.27;;;13.60;99.90;;;;;;4951741;28;20245;-62
2022/10/06 02:16:50;;;;;;;9.65;1.33;;;13.70;99.90;;;;;;4960420;28;20047;-63
2022/10/06 02:19:16;;;;;;;7.65;1.42;;;13.60;99.90;;;;;;4959496;28;20172;-62
2022/10/06 02:21:42;;;;;;;12.10;1.90;;;13.70;99.90;;;;;;4957985;28;20043;-62
2022/10/06 02:24:07;;;;;;;6.75;1.50;;;13.80;99.90;;;;;;4958743;28;20070;-62
2022/10/06 02:26:33;;;;;;;7.28;1.40;;;13.70;99.90;;;;;;4957457;28;20114;-62
2022/10/06 02:28:59;;;;;;;10.30;2.22;;;13.60;99.90;;;;;;4959649;28;20035;-62
2022/10/06 02:31:24;;;;;;;13.73;1.67;;;13.70;99.90;;;;;;4956234;28;20031;-62
2022/10/06 02:33:50;;;;;;;9.98;1.83;;;13.70;99.90;;;;;;4957338;28;20035;-62
2022/10/06 02:36:16;;;;;;;10.45;2.00;;;13.70;99.90;;;;;;4956248;28;20031;-62
2022/10/06 02:38:42;;;;;;;14.57;2.67;;;13.70;99.90;;;;;;4959997;28;20113;-62
2022/10/06 02:41:09;;;;;;;11.38;1.67;;;13.60;99.90;;;;;;4956071;28;20748;-62
2022/10/06 02:43:35;;;;;;;9.70;2.38;;;13.70;99.90;;;;;;4960094;28;20453;-62
2022/10/06 02:46:04;;;;;;;11.25;2.50;;;13.60;99.90;;;;;;4959768;28;20039;-62
2022/10/06 02:48:30;;;;;;;6.30;1.70;;;13.60;99.90;;;;;;4957688;28;20039;-62
2022/10/06 02:51:00;;;;;;;16.27;2.30;;;13.50;99.90;;;;;;4953413;28;20027;-62
2022/10/06 02:53:27;;;;;;;7.00;1.77;;;13.50;99.90;;;;;;4957150;28;20490;-62
2022/10/06 02:56:08;;;;;;;11.10;2.42;;;13.60;99.90;;;;;;4958435;28;20171;-62
2022/10/06 02:58:34;;;;;;;7.72;1.70;;;13.60;99.90;;;;;;4958800;28;20484;-62
2022/10/06 03:01:06;;;;;;;10.27;1.80;;;13.60;99.90;;;;;;4958945;28;20063;-62
2022/10/06 03:03:34;;;;;;;9.80;1.88;;;13.40;99.90;;;;;;4957321;28;20035;-62
2022/10/06 03:06:20;;;;;;;9.90;1.70;;;13.40;99.90;;;;;;4955693;28;20040;-62
2022/10/06 03:09:00;;;;;;;9.00;1.60;;;13.40;99.90;;;;;;4959364;28;20545;-62
2022/10/06 03:11:29;;;;;;;7.55;2.10;;;13.30;99.90;;;;;;4960656;28;20093;-62
2022/10/06 03:13:55;;;;;;;11.05;1.73;;;13.40;99.90;;;;;;4955932;28;20526;-62
2022/10/06 03:16:31;;;;;;;6.70;1.50;;;13.40;99.90;;;;;;4957862;28;21060;-62
2022/10/06 03:18:57;;;;;;;11.07;1.77;;;13.40;99.90;;;;;;4960290;28;20451;-62
2022/10/06 03:21:25;;;;;;;9.75;1.90;;;13.30;99.90;;;;;;4957546;28;20129;-62
2022/10/06 03:23:52;;;;;;;6.70;1.63;;;13.30;99.90;;;;;;4960580;28;20046;-62
2022/10/06 03:26:22;;;;;;;11.95;1.75;;;13.30;99.90;;;;;;4958230;28;20027;-62
2022/10/06 03:28:48;;;;;;;9.10;1.92;;;13.30;99.90;;;;;;4962333;28;20360;-62
2022/10/06 03:31:14;;;;;;;12.85;2.22;;;13.40;99.90;;;;;;4956138;28;20093;-62
2022/10/06 03:33:40;;;;;;;14.40;2.40;;;13.20;99.90;;;;;;4955220;28;20063;-62
2022/10/06 03:36:09;;;;;;;10.27;1.75;;;13.20;99.90;;;;;;4958386;28;20169;-62
2022/10/06 03:38:36;;;;;;;9.82;1.90;;;13.30;99.90;;;;;;4955419;28;20089;-62
2022/10/06 03:41:18;;;;;;;11.43;2.70;;;13.20;99.90;;;;;;4957469;28;20527;-61
2022/10/06 03:43:46;;;;;;;9.93;1.80;;;13.10;99.90;;;;;;4955909;28;20072;-62
2022/10/06 03:46:13;;;;;;;13.98;2.10;;;13.10;99.90;;;;;;4956696;28;20430;-62
2022/10/06 03:48:39;;;;;;;12.80;1.70;;;13.20;99.90;;;;;;4955125;28;20043;-62
2022/10/06 03:51:09;;;;;;;9.38;2.15;;;13.20;99.90;;;;;;4955215;28;20090;-62
2022/10/06 03:53:35;;;;;;;12.48;2.08;;;13.20;99.90;;;;;;4952630;28;20134;-62
2022/10/06 03:56:21;;;;;;;11.40;2.10;;;13.20;99.90;;;;;;4960956;28;20125;-62
2022/10/06 03:58:55;;;;;;;13.07;2.20;;;13.20;99.90;;;;;;4954957;28;20089;-62
2022/10/06 04:01:27;;;;;;;9.68;1.98;;;13.20;99.90;;;;;;4959093;28;20042;-62
2022/10/06 04:03:54;;;;;;;12.32;2.20;;;13.20;99.90;;;;;;4953081;28;20043;-62
2022/10/06 04:06:21;;;;;;;14.15;2.35;;;13.10;99.90;;;;;;4955044;28;20031;-62
2022/10/06 04:08:48;;;;;;;10.68;2.00;;;13.20;99.90;;;;;;4954457;28;20035;-62
2022/10/06 04:11:23;;;;;;;11.98;2.30;;;13.10;99.90;;;;;;4956086;28;20475;-62
2022/10/06 04:13:56;;;;;;;17.77;3.33;;;13.10;99.90;;;;;;4952423;28;20622;-62
2022/10/06 04:16:25;;;;;;;10.43;2.08;;;13.10;99.90;;;;;;4950038;28;20042;-62
2022/10/06 04:18:56;;;;;;;12.65;2.25;;;13.00;99.90;;;;;;4957769;28;20035;-62
2022/10/06 04:21:23;;;;;;;13.95;2.38;;;13.00;99.90;;;;;;4953654;28;20046;-62
2022/10/06 04:24:00;;;;;;;10.07;2.20;;;12.90;99.90;;;;;;4954323;28;20110;-62
2022/10/06 04:26:31;;;;;;;14.88;2.15;;;12.90;99.90;;;;;;4953829;28;20457;-62
2022/10/06 04:28:57;;;;;;;9.73;1.90;;;12.90;99.90;;;;;;4949381;28;20114;-62
2022/10/06 04:31:31;;;;;;;14.82;2.10;;;12.90;99.90;;;;;;4955997;28;20030;-62
2022/10/06 04:33:59;;;;;;;8.88;2.20;;;12.90;99.90;;;;;;4950001;28;20042;-62
2022/10/06 04:36:40;;;;;;;10.25;1.98;;;13.00;99.90;;;;;;4960308;28;20035;-62
2022/10/06 04:39:06;;;;;;;10.95;2.30;;;12.90;99.90;;;;;;4954917;28;20030;-62
2022/10/06 04:41:38;;;;;;;17.00;2.17;;;12.70;99.90;;;;;;4953854;28;20027;-62
2022/10/06 04:44:05;;;;;;;9.88;2.22;;;12.70;99.90;;;;;;4958139;28;20050;-62
2022/10/06 04:46:32;;;;;;;11.25;2.35;;;12.50;99.90;;;;;;4953803;28;20066;-62
2022/10/06 04:48:57;;;;;;;12.88;2.15;;;12.50;99.90;;;;;;4955005;28;20039;-62
2022/10/06 04:51:25;;;;;;;11.82;2.00;;;12.60;99.90;;;;;;4954944;28;20427;-62
2022/10/06 04:53:51;;;;;;;12.13;1.95;;;12.60;99.90;;;;;;4960728;28;20470;-62
2022/10/06 04:56:19;;;;;;;12.55;2.55;;;12.40;99.90;;;;;;4955907;28;20086;-62
2022/10/06 04:58:47;;;;;;;11.32;2.40;;;12.50;99.90;;;;;;4948800;28;20118;-62
2022/10/06 05:01:14;;;;;;;13.75;2.45;;;12.50;99.90;;;;;;4956374;28;20029;-62
2022/10/06 05:03:40;;;;;;;11.73;2.20;;;12.50;99.90;;;;;;4957792;28;20605;-62
2022/10/06 05:06:11;;;;;;;15.48;2.85;;;12.40;99.90;;;;;;4955712;28;20035;-62
2022/10/06 05:08:37;;;;;;;18.02;3.65;;;12.50;99.90;;;;;;4956333;28;20462;-62
2022/10/06 05:11:06;;;;;;;12.35;2.80;;;12.30;99.90;;;;;;4955667;28;20031;-62
2022/10/06 05:13:31;;;;;;;13.10;2.67;;;12.40;99.90;;;;;;4952309;28;20042;-62
2022/10/06 05:15:58;;;;;;;17.63;3.20;;;12.40;99.90;;;;;;4955542;28;20035;-62
2022/10/06 05:18:25;;;;;;;10.10;3.08;;;12.40;99.90;;;;;;4955721;28;20047;-62
2022/10/06 05:20:59;;;;;;;13.10;2.60;;;12.50;99.90;;;;;;4955150;28;20410;-62
2022/10/06 05:23:26;;;;;;;16.58;2.25;;;12.30;99.90;;;;;;4957648;28;20057;-62
2022/10/06 05:25:53;;;;;;;14.25;2.42;;;12.40;99.90;;;;;;4952821;28;20109;-62
2022/10/06 05:28:20;;;;;;;15.88;2.25;;;12.50;99.90;;;;;;4951173;28;20039;-62
2022/10/06 05:31:04;;;;;;;13.55;2.13;;;12.40;99.90;;;;;;4947664;28;20031;-62
2022/10/06 05:33:30;;;;;;;;;;;12.30;99.90;;;;;;4944862;28;20035;-62
2022/10/06 05:35:58;;;;;;;18.83;2.53;;;12.30;99.90;;;;;;4954833;28;19918;-61
2022/10/06 05:38:24;;;;;;;11.43;2.17;;;12.40;99.90;;;;;;4948780;28;20050;-62
2022/10/06 05:40:50;;;;;;;14.20;2.28;;;12.30;99.90;;;;;;4958130;28;20039;-62
2022/10/06 05:43:16;;;;;;;13.25;2.80;;;12.20;99.90;;;;;;4954449;28;20051;-62
2022/10/06 05:45:53;;;;;;;17.42;2.47;;;12.20;99.90;;;;;;4953369;28;20054;-62
2022/10/06 05:48:19;;;;;;;15.00;3.30;;;12.30;99.90;;;;;;4953700;28;20128;-62
2022/10/06 05:50:45;;;;;;;15.45;2.75;;;12.30;99.90;;;;;;4952054;28;20522;-62
2022/10/06 05:53:11;;;;;;;15.95;2.35;;;12.20;99.90;;;;;;4953421;28;20129;-62
2022/10/06 05:55:36;;;;;;;15.40;2.63;;;12.30;99.90;;;;;;4952259;28;20054;-61
2022/10/06 05:58:02;;;;;;;20.80;3.05;;;12.20;99.90;;;;;;4955208;28;20047;-61
2022/10/06 06:00:27;;;;;;;21.50;3.15;;;12.10;99.90;;;;;;4955002;28;20034;-62
2022/10/06 06:02:53;;;;;;;22.50;3.60;;;12.10;99.90;;;;;;4951194;28;20137;-62
2022/10/06 06:05:18;;;;;;;15.85;2.83;;;12.20;99.90;;;;;;4956353;28;20074;-62
2022/10/06 06:07:44;;;;;;;24.88;3.85;;;12.20;99.90;;;;;;4964256;28;20181;-62
2022/10/06 06:10:10;;;;;;;25.55;4.35;;;12.30;99.90;;;;;;4958509;28;20523;-62
2022/10/06 06:12:35;;;;;;;16.02;2.90;;;12.20;99.90;;;;;;4957902;28;20056;-62
2022/10/06 06:17:45;;;;;;;19.88;3.45;;;12.20;99.90;;;;;;4957570;28;20070;-62
2022/10/06 06:20:10;;;;;;;25.73;3.40;;;12.20;99.90;;;;;;4958284;28;20484;-62
2022/10/06 06:22:36;;;;;;;25.35;4.25;;;12.20;99.90;;;;;;4956408;28;20357;-61
2022/10/06 06:25:01;;;;;;;26.08;3.63;;;12.30;99.90;;;;;;4954860;28;20043;-61
2022/10/06 06:27:27;;;;;;;15.85;3.13;;;12.40;99.90;;;;;;4953267;28;20179;-62
2022/10/06 06:29:53;;;;;;;23.17;3.47;;;12.30;99.90;;;;;;4952602;28;20043;-61
2022/10/06 06:32:18;;;;;;;16.05;2.75;;;12.40;99.90;;;;;;4954743;28;20031;-62
2022/10/06 06:34:44;;;;;;;15.50;2.55;;;12.40;99.90;;;;;;4958414;28;20038;-61
2022/10/06 06:37:10;;;;;;;19.75;3.25;;;12.50;99.90;;;;;;4952806;28;20058;-62
2022/10/06 06:39:35;;;;;;;18.77;3.15;;;12.50;99.90;;;;;;4956625;28;20122;-62
2022/10/06 06:42:03;;;;;;;39.15;5.78;;;12.50;99.90;;;;;;4950748;28;20070;-62
2022/10/06 06:44:29;;;;;;;12.30;2.70;;;12.50;99.90;;;;;;4954869;28;20045;-62
2022/10/06 06:46:55;;;;;;;24.38;3.83;;;12.40;99.90;;;;;;4955757;28;20587;-62
2022/10/06 06:49:21;;;;;;;19.58;3.55;;;12.50;99.90;;;;;;4964126;28;20027;-62
2022/10/06 06:51:49;;;;;;;17.63;3.05;;;12.50;99.90;;;;;;4960979;28;20464;-62
2022/10/06 06:54:17;;;;;;;21.38;3.90;;;12.60;99.90;;;;;;4954795;28;20031;-62
2022/10/06 06:56:44;;;;;;;22.67;3.03;;;12.60;99.90;;;;;;4963555;28;20112;-62
2022/10/06 06:59:10;;;;;;;12.65;2.72;;;12.70;99.90;;;;;;4958011;28;20746;-62
2022/10/06 07:01:47;;;;;;;16.13;2.63;;;12.70;99.90;;;;;;4958765;28;20043;-62
2022/10/06 07:04:14;;;;;;;29.50;3.33;;;12.70;99.90;;;;;;4956269;28;20031;-63
2022/10/06 07:06:41;;;;;;;17.77;3.08;;;12.60;99.90;;;;;;4958428;28;20089;-62
2022/10/06 07:09:09;;;;;;;23.73;3.78;;;12.80;99.90;;;;;;4956227;28;20094;-62
2022/10/06 07:11:38;;;;;;;19.67;2.80;;;12.80;99.90;;;;;;4959151;28;20360;-62
2022/10/06 07:14:07;;;;;;;21.30;3.40;;;12.90;99.90;;;;;;4952065;28;20142;-62
2022/10/06 07:25:05;;;;;;;19.20;3.65;;;13.00;99.90;;;;;;4957044;28;20131;-62
2022/10/06 07:27:37;;;;;;;15.73;2.63;;;12.90;99.90;;;;;;4958473;28;20081;-62
2022/10/06 07:30:06;;;;;;;19.27;3.08;;;13.00;99.90;;;;;;4954970;28;20035;-62
2022/10/06 07:32:31;;;;;;;21.92;3.40;;;13.10;99.90;;;;;;4953978;28;20055;-62
2022/10/06 07:35:03;;;;;;;20.85;3.70;;;13.20;99.90;;;;;;4956471;28;20058;-62
2022/10/06 07:37:28;;;;;;;20.35;3.20;;;13.20;99.90;;;;;;4956230;28;20043;-62
2022/10/06 07:39:54;;;;;;;17.90;3.25;;;13.20;99.90;;;;;;4959402;28;20667;-62
2022/10/06 07:42:20;;;;;;;19.08;3.30;;;13.30;99.90;;;;;;4957529;28;20118;-62
2022/10/06 07:47:30;;;;;;;19.65;3.03;;;13.30;99.90;;;;;;4957448;28;20058;-62
2022/10/06 07:49:57;;;;;;;19.90;3.42;;;13.20;99.90;;;;;;4960160;28;20022;-62
2022/10/06 07:52:23;;;;;;;18.40;3.22;;;13.30;99.90;;;;;;4961282;28;20054;-62
2022/10/06 07:54:49;;;;;;;19.00;3.47;;;13.50;99.90;;;;;;4951979;28;20047;-62
2022/10/06 07:57:15;;;;;;;17.60;4.03;;;13.40;99.90;;;;;;4956068;28;20031;-60
2022/10/06 07:59:40;;;;;;;17.52;3.40;;;13.50;99.90;;;;;;4961351;28;20655;-62
2022/10/06 08:02:06;;;;;;;19.80;3.40;;;13.50;99.90;;;;;;4959253;28;20050;-61
2022/10/06 08:04:31;;;;;;;20.27;3.58;;;13.60;99.90;;;;;;4957776;28;20035;-61
2022/10/06 08:06:57;;;;;;;19.00;3.20;;;13.60;99.90;;;;;;4959488;28;20113;-62
2022/10/06 08:09:23;;;;;;;25.40;3.78;;;13.60;99.90;;;;;;4959679;28;20164;-61
2022/10/06 08:11:48;;;;;;;16.23;3.65;;;13.80;99.90;;;;;;4956910;28;20039;-61
2022/10/06 08:14:14;;;;;;;28.00;3.47;;;13.80;99.90;;;;;;4950240;28;20554;-61
2022/10/06 08:16:40;;;;;;;19.23;3.70;;;13.80;99.90;;;;;;4956435;28;20645;-61
2022/10/06 08:19:05;;;;;;;21.38;3.55;;;13.80;99.90;;;;;;4952462;28;20594;-62
2022/10/06 08:21:35;;;;;;;22.63;3.47;;;13.90;99.90;;;;;;4958403;28;20023;-62
2022/10/06 08:24:03;;;;;;;27.63;4.30;;;14.00;99.90;;;;;;4955451;28;20031;-62
2022/10/06 08:26:35;;;;;;;25.30;3.83;;;13.90;99.90;;;;;;4951607;28;20142;-61
2022/10/06 08:29:04;;;;;;;16.52;3.03;;;14.10;99.90;;;;;;4957489;28;20042;-62
2022/10/06 08:31:31;;;;;;;19.67;2.88;;;14.00;99.90;;;;;;4959758;28;20140;-62
2022/10/06 08:33:57;;;;;;;15.25;3.13;;;14.10;99.90;;;;;;4954206;28;20027;-62
2022/10/06 08:36:25;;;;;;;20.55;3.00;;;14.10;99.90;;;;;;4960917;28;20031;-62
2022/10/06 08:38:51;;;;;;;20.70;3.70;;;14.20;99.90;;;;;;4955226;28;20656;-62
2022/10/06 08:41:38;;;;;;;16.88;3.40;;;14.20;99.90;;;;;;4958416;28;20298;-62
2022/10/06 08:44:19;;;;;;;17.27;3.00;;;14.30;99.90;;;;;;4951636;28;20508;-61
2022/10/06 08:46:54;;;;;;;14.50;2.83;;;14.30;99.90;;;;;;4956668;28;20031;-62
2022/10/06 08:49:26;;;;;;;17.42;3.03;;;14.30;99.90;;;;;;4947995;28;20462;-62
2022/10/06 08:52:01;;;;;;;19.42;2.88;;;14.30;99.90;;;;;;4957918;28;20673;-62
2022/10/06 08:54:37;;;;;;;15.48;2.60;;;14.40;99.90;;;;;;4945777;28;20496;-62
2022/10/06 08:57:25;;;;;;;14.10;3.28;;;14.50;99.90;;;;;;4950291;28;20051;-61
2022/10/06 08:59:54;;;;;;;15.32;3.08;;;14.50;99.90;;;;;;4982262;28;20042;-62
2022/10/06 09:02:44;;;;;;;20.30;3.30;;;14.50;99.90;;;;;;4951279;28;20039;-62
2022/10/06 09:05:23;;;;;;;18.48;3.22;;;14.50;99.90;;;;;;4951334;28;20730;-62
2022/10/06 09:07:58;;;;;;;16.00;3.28;;;14.40;99.90;;;;;;4955970;28;20073;-62
2022/10/06 09:10:52;;;;;;;17.95;2.88;;;14.50;99.90;;;;;;4957236;28;20168;-62
2022/10/06 09:13:27;;;;;;;19.58;2.97;;;14.50;99.90;;;;;;4944306;28;20126;-62
2022/10/06 09:15:58;;;;;;;16.23;2.83;;;14.60;99.90;;;;;;4956682;28;20573;-62
2022/10/06 09:18:33;;;;;;;18.92;2.72;;;14.60;99.90;;;;;;4958417;28;20042;-62
2022/10/06 09:21:12;;;;;;;16.25;2.90;;;14.70;99.90;;;;;;4957999;28;20509;-62
2022/10/06 09:23:47;;;;;;;21.33;3.25;;;14.70;99.90;;;;;;4950965;28;20085;-62
2022/10/06 09:26:32;;;;;;;16.85;2.78;;;14.80;99.90;;;;;;4955970;28;20051;-62
2022/10/06 09:28:58;;;;;;;16.90;3.70;;;14.90;99.90;;;;;;4954288;28;20046;-62
2022/10/06 09:31:26;;;;;;;20.50;3.25;;;14.90;99.90;;;;;;4958467;28;20117;-62
2022/10/06 09:33:58;;;;;;;17.35;3.03;;;15.00;99.90;;;;;;4950768;28;20058;-62
2022/10/06 09:36:24;;;;;;;22.38;3.55;;;15.00;99.90;;;;;;4959556;28;20053;-62
2022/10/06 09:38:54;;;;;;;18.58;2.92;;;15.00;99.90;;;;;;4952019;28;20038;-62
2022/10/06 09:41:37;;;;;;;17.98;2.95;;;15.00;99.90;;;;;;4952721;28;20031;-62
2022/10/06 09:44:25;;;;;;;16.85;2.80;;;15.00;99.90;;;;;;4952533;28;20034;-62
2022/10/06 09:46:51;;;;;;;19.15;2.83;;;15.10;99.90;;;;;;4948862;28;20367;-62
2022/10/06 09:49:24;;;;;;;16.80;2.90;;;15.00;99.90;;;;;;4959532;28;20039;-62
2022/10/06 09:52:00;;;;;;;;;;;15.10;99.90;;;;;;4953233;28;20035;-62
2022/10/06 09:54:30;;;;;;;17.80;2.85;;;15.20;99.90;;;;;;4954539;28;19915;-62
2022/10/06 09:56:58;;;;;;;18.55;3.80;;;15.30;99.90;;;;;;4954262;28;20486;-62
2022/10/06 09:59:34;;;;;;;16.67;2.78;;;15.30;99.90;;;;;;4956930;28;20058;-62
2022/10/06 10:02:00;;;;;;;18.38;2.92;;;15.20;99.90;;;;;;4953138;28;20039;-62
2022/10/06 10:04:37;;;;;;;13.13;2.47;;;15.30;99.90;;;;;;4955949;28;20137;-62
2022/10/06 10:07:13;;;;;;;17.38;2.53;;;15.30;99.90;;;;;;4951091;28;20474;-62
2022/10/06 10:09:40;;;;;;;16.17;2.83;;;15.20;99.90;;;;;;4951015;28;20039;-62
2022/10/06 10:12:31;;;;;;;17.67;2.63;;;15.30;99.90;;;;;;4954896;28;20376;-59
2022/10/06 10:15:00;;;;;;;17.45;2.80;;;15.40;99.90;;;;;;4948574;28;20047;-60
2022/10/06 10:17:36;;;;;;;12.50;2.70;;;15.40;99.90;;;;;;4954943;28;20058;-60
2022/10/06 10:20:16;;;;;;;15.75;2.88;;;15.50;99.90;;;;;;4949450;28;20114;-60
2022/10/06 10:22:45;;;;;;;16.50;2.40;;;15.60;99.90;;;;;;4956980;28;20035;-60
2022/10/06 10:25:47;;;;;;;12.77;2.10;;;15.50;99.90;;;;;;4954601;28;20027;-60
2022/10/06 10:28:18;;;;;;;11.00;2.30;;;15.60;99.90;;;;;;4960520;28;20106;-59
2022/10/06 10:30:53;;;;;;;12.63;2.20;;;15.50;99.90;;;;;;4965631;28;20034;-60
2022/10/06 10:33:43;;;;;;;16.95;3.10;;;15.50;99.90;;;;;;4956663;28;20054;-60
2022/10/06 10:36:13;;;;;;;15.52;2.42;;;15.60;99.90;;;;;;4957517;28;20383;-60
2022/10/06 10:38:41;;;;;;;14.02;2.40;;;15.70;99.90;;;;;;4955483;28;20074;-60
2022/10/06 10:41:17;;;;;;;10.82;2.25;;;15.70;99.90;;;;;;4960894;28;20539;-60
2022/10/06 10:43:51;;;;;;;8.05;2.20;;;15.80;99.90;;;;;;4958382;28;20435;-59
2022/10/06 10:46:29;;;;;;;7.55;2.13;;;15.80;99.90;;;;;;4954443;28;20434;-60
2022/10/06 10:49:02;;;;;;;12.25;1.73;;;15.70;99.90;;;;;;4959158;28;20458;-60
2022/10/06 10:51:30;;;;;;;;;;;15.70;99.90;;;;;;4961690;28;20046;-60
2022/10/06 10:54:13;;;;;;;11.10;1.92;;;15.80;99.90;;;;;;4959156;28;19950;-60
2022/10/06 10:56:40;;;;;;;6.47;1.95;;;15.80;99.90;;;;;;4951884;28;20039;-60
2022/10/06 10:59:13;;;;;;;10.80;1.83;;;15.90;99.90;;;;;;4958756;28;20051;-60
2022/10/06 11:01:52;;;;;;;9.00;1.90;;;15.80;99.90;;;;;;4953671;28;20048;-60
2022/10/06 11:04:19;;;;;;;9.90;1.73;;;15.90;99.90;;;;;;4951936;28;20521;-60
2022/10/06 11:06:53;;;;;;;7.57;1.90;;;15.80;99.90;;;;;;4962973;28;20043;-60
2022/10/06 11:09:38;;;;;;;10.30;1.88;;;15.80;99.90;;;;;;4958413;28;20517;-60
2022/10/06 11:12:36;;;;;;;7.55;1.48;;;15.80;99.90;;;;;;4954878;28;20031;-60
2022/10/06 11:15:20;;;;;;;7.70;1.63;;;15.80;99.90;;;;;;4940054;28;20147;-60
2022/10/06 11:17:49;;;;;;;5.70;1.40;;;15.80;99.90;;;;;;4952421;28;20058;-60
2022/10/06 11:20:29;;;;;;;9.73;1.88;;;15.90;99.90;;;;;;4955382;28;20058;-60
2022/10/06 11:23:13;;;;;;;8.00;1.70;;;16.00;99.90;;;;;;4955055;28;20066;-60
2022/10/06 11:25:56;;;;;;;8.98;1.80;;;16.00;99.90;;;;;;4956977;28;20046;-60
2022/10/06 11:28:32;;;;;;;7.87;1.60;;;16.00;99.90;;;;;;4955112;28;20043;-60
2022/10/06 11:31:21;;;;;;;8.80;1.80;;;16.10;99.90;;;;;;4955067;28;20039;-60
2022/10/06 11:33:53;;;;;;;11.38;2.10;;;16.10;99.90;;;;;;4948659;28;20085;-60
2022/10/06 11:36:28;;;;;;;12.23;2.05;;;15.90;99.90;;;;;;4954467;28;20387;-60
2022/10/06 11:39:02;;;;;;;7.00;1.55;;;15.90;99.90;;;;;;4957726;28;20046;-60
2022/10/06 11:41:33;;;;;;;8.68;1.75;;;16.00;99.90;;;;;;4957187;28;20030;-60
2022/10/06 11:44:18;;;;;;;6.50;1.58;;;16.00;99.90;;;;;;4953151;28;20043;-60
2022/10/06 11:46:57;;;;;;;9.23;1.63;;;16.00;99.90;;;;;;4958315;28;20035;-60
2022/10/06 11:49:28;;;;;;;6.22;2.00;;;16.10;99.90;;;;;;4956711;28;20039;-59
2022/10/06 11:51:55;;;;;;;11.20;2.10;;;16.00;99.90;;;;;;4960158;28;20039;-60
2022/10/06 11:54:46;;;;;;;7.93;1.95;;;16.00;99.90;;;;;;4956268;28;20027;-59
2022/10/06 11:57:25;;;;;;;7.70;1.38;;;16.10;99.90;;;;;;4960108;28;20480;-59
2022/10/06 11:59:53;;;;;;;9.60;1.65;;;16.10;99.90;;;;;;4957965;28;20042;-59
2022/10/06 12:02:35;;;;;;;7.40;1.67;;;16.10;99.90;;;;;;4961059;28;20035;-59
2022/10/06 12:05:13;;;;;;;10.50;1.67;;;16.10;99.90;;;;;;4955563;28;20049;-59
2022/10/06 12:07:56;;;;;;;9.40;1.92;;;16.10;99.90;;;;;;4972701;28;20039;-59
2022/10/06 12:10:28;;;;;;;9.35;1.67;;;16.10;99.90;;;;;;4957015;28;20042;-59
2022/10/06 12:13:15;;;;;;;12.35;2.58;;;16.10;99.90;;;;;;4952740;28;20066;-59
2022/10/06 12:16:05;;;;;;;9.13;1.80;;;16.20;99.90;;;;;;4951058;28;20521;-59
2022/10/06 12:18:40;;;;;;;12.35;1.92;;;16.20;99.90;;;;;;4959794;28;20066;-59
2022/10/06 12:21:13;;;;;;;7.80;1.80;;;16.10;99.90;;;;;;4956392;28;20053;-60
2022/10/06 12:24:02;;;;;;;8.43;2.47;;;16.20;99.90;;;;;;4957483;28;20691;-59
2022/10/06 12:26:48;;;;;;;6.20;1.75;;;16.20;99.90;;;;;;4953700;28;20079;-59
2022/10/06 12:29:33;;;;;;;8.32;1.50;;;16.30;99.90;;;;;;4957155;28;20035;-59
2022/10/06 12:32:23;;;;;;;9.80;1.55;;;16.30;99.90;;;;;;4951523;28;20039;-59
2022/10/06 12:34:57;;;;;;;8.88;1.30;;;16.20;99.90;;;;;;4952828;28;20998;-59
2022/10/06 12:37:31;;;;;;;11.30;2.17;;;16.30;99.90;;;;;;4956676;28;20042;-60
2022/10/06 12:40:33;;;;;;;11.20;1.77;;;16.20;99.90;;;;;;4953072;28;20062;-59
2022/10/06 12:43:12;;;;;;;8.32;1.85;;;16.30;99.90;;;;;;4952486;28;20023;-59
2022/10/06 12:46:06;;;;;;;5.63;1.45;;;16.30;99.90;;;;;;4956397;28;20265;-60
2022/10/06 12:48:50;;;;;;;7.05;1.73;;;16.30;99.90;;;;;;4954021;28;20771;-59
2022/10/06 12:51:43;;;;;;;6.95;1.42;;;16.30;99.90;;;;;;4956117;28;20432;-60
2022/10/06 12:54:33;;;;;;;13.07;1.92;;;16.30;99.90;;;;;;4951638;28;20785;-59
2022/10/06 12:57:01;;;;;;;5.75;1.48;;;16.40;99.90;;;;;;4951424;28;20614;-59
2022/10/06 12:59:28;;;;;;;7.55;1.45;;;16.30;99.90;;;;;;4949296;28;20197;-56
2022/10/06 13:02:06;;;;;;;7.57;1.63;;;16.40;99.90;;;;;;4954378;28;20418;-59
2022/10/06 13:04:47;;;;;;;9.95;1.80;;;16.40;99.90;;;;;;4951493;28;20087;-59
2022/10/06 13:07:16;;;;;;;5.93;1.40;;;16.40;99.90;;;;;;4948040;28;20124;-59
2022/10/06 13:09:44;;;;;;;11.45;1.90;;;16.40;99.90;;;;;;4952223;28;20035;-63
2022/10/06 13:12:28;;;;;;;9.20;1.77;;;16.40;99.90;;;;;;4948640;28;20041;-60
2022/10/06 13:15:14;;;;;;;8.02;1.58;;;16.40;99.90;;;;;;4950583;28;21179;-59